Time;durP1;ratioP1;P1;durP2;ratioP2;P2;SDS_P1;SDS_P2;PMS_P1;PMS_P2;Temp;Humidity;BMP_temperature;BMP_pressure;BME280_temperature;BME280_humidity;BME280_pressure;Samples;Min_cycle;Max_cycle;Signal;HPM_P1;HPM_P2
2023/12/08 00:02:25;;;;;;;18.03;9.93;;;-0.60;1.00;;;;;;5071308;28;20194;-80
2023/12/08 00:04:52;;;;;;;20.27;10.97;;;-0.60;1.00;;;;;;5069044;28;20210;-80
2023/12/08 00:07:19;;;;;;;19.03;9.57;;;-0.50;1.00;;;;;;5066256;28;20587;-79
2023/12/08 00:09:47;;;;;;;17.83;10.67;;;-0.40;1.00;;;;;;5071937;28;20228;-80
2023/12/08 00:12:14;;;;;;;19.23;11.37;;;-0.40;99.90;;;;;;5072368;28;20199;-81
2023/12/08 00:14:40;;;;;;;18.50;10.70;;;-0.50;1.00;;;;;;5071571;28;20198;-80
2023/12/08 00:17:07;;;;;;;21.47;11.20;;;-0.60;9.20;;;;;;5073159;28;20884;-81
2023/12/08 00:19:34;;;;;;;20.53;11.30;;;-0.60;99.90;;;;;;5073986;28;20218;-80
2023/12/08 00:22:02;;;;;;;20.13;11.03;;;-0.50;99.90;;;;;;5073094;28;20201;-80
2023/12/08 00:24:29;;;;;;;18.87;11.20;;;-0.40;99.90;;;;;;5066398;28;20226;-80
2023/12/08 00:26:57;;;;;;;20.53;11.20;;;-0.40;1.00;;;;;;5065694;28;20214;-81
2023/12/08 00:29:25;;;;;;;20.07;10.83;;;-0.40;99.90;;;;;;5065900;28;20229;-80
2023/12/08 00:31:52;;;;;;;18.50;9.73;;;-0.30;99.90;;;;;;5070859;28;20206;-80
2023/12/08 00:34:19;;;;;;;20.67;11.00;;;-0.20;99.90;;;;;;5067535;28;20202;-81
2023/12/08 00:36:46;;;;;;;19.00;10.50;;;-0.10;1.00;;;;;;5071455;28;20202;-80
2023/12/08 00:39:13;;;;;;;18.37;11.50;;;-0.10;13.80;;;;;;5067716;28;20225;-80
2023/12/08 00:41:39;;;;;;;19.13;10.67;;;-0.10;1.00;;;;;;5071186;28;20203;-80
2023/12/08 00:44:08;;;;;;;19.13;10.43;;;0.00;1.00;;;;;;5072534;28;20199;-80
2023/12/08 00:46:35;;;;;;;21.33;10.90;;;-0.10;1.00;;;;;;5068991;28;20668;-79
2023/12/08 00:49:02;;;;;;;21.17;11.67;;;-0.10;1.00;;;;;;5074684;28;20223;-80
2023/12/08 00:51:29;;;;;;;22.13;11.53;;;0.00;1.00;;;;;;5072944;28;20202;-79
2023/12/08 00:53:55;;;;;;;21.77;12.00;;;-0.10;1.00;;;;;;5072074;28;20205;-79
2023/12/08 00:56:22;;;;;;;22.10;11.97;;;0.00;1.00;;;;;;5071190;28;20190;-80
2023/12/08 00:58:49;;;;;;;19.87;11.43;;;0.00;1.00;;;;;;5075772;28;20549;-80
2023/12/08 01:01:19;;;;;;;21.63;11.93;;;-0.10;1.00;;;;;;5075025;28;20209;-80
2023/12/08 01:03:46;;;;;;;20.07;11.23;;;-0.20;1.00;;;;;;5075162;28;20206;-80
2023/12/08 01:06:12;;;;;;;20.37;11.77;;;-0.20;1.00;;;;;;5074231;28;20256;-80
2023/12/08 01:08:39;;;;;;;21.60;10.93;;;-0.20;99.90;;;;;;5074221;28;20572;-80
2023/12/08 01:11:08;;;;;;;22.17;11.97;;;-0.20;99.90;;;;;;5076701;28;20222;-80
2023/12/08 01:13:35;;;;;;;19.83;11.57;;;-0.20;41.30;;;;;;5075124;28;20203;-81
2023/12/08 01:16:02;;;;;;;20.67;12.07;;;-0.20;27.80;;;;;;5073378;28;20222;-80
2023/12/08 01:18:31;;;;;;;21.90;11.70;;;-0.20;1.00;;;;;;5074817;28;20209;-80
2023/12/08 01:20:57;;;;;;;21.63;11.10;;;-0.20;1.00;;;;;;5074500;28;20229;-80
2023/12/08 01:23:24;;;;;;;20.13;11.27;;;-0.20;1.00;;;;;;5074945;28;20198;-80
2023/12/08 01:25:51;;;;;;;21.93;11.47;;;-0.20;99.90;;;;;;5076025;28;20692;-81
2023/12/08 01:28:18;;;;;;;19.13;10.77;;;-0.30;1.00;;;;;;5075030;28;20201;-80
2023/12/08 01:30:45;;;;;;;19.13;10.87;;;-0.30;1.00;;;;;;5063551;28;20287;-80
2023/12/08 01:33:12;;;;;;;19.90;11.33;;;-0.30;11.90;;;;;;5067456;28;20202;-80
2023/12/08 01:35:40;;;;;;;19.03;10.30;;;-0.20;25.20;;;;;;5067414;28;20696;-80
2023/12/08 01:38:07;;;;;;;18.87;11.30;;;-0.20;1.00;;;;;;5070013;28;20227;-80
2023/12/08 01:40:34;;;;;;;19.90;9.70;;;-0.20;17.10;;;;;;5065161;28;20226;-80
2023/12/08 01:43:01;;;;;;;19.73;11.23;;;-0.10;1.00;;;;;;5071207;28;20705;-80
2023/12/08 01:45:28;;;;;;;20.33;11.50;;;-0.10;1.00;;;;;;5071442;28;20195;-80
2023/12/08 01:47:55;;;;;;;20.40;11.17;;;0.00;1.00;;;;;;5066773;28;20545;-80
2023/12/08 01:50:23;;;;;;;20.77;11.67;;;0.10;1.00;;;;;;5072008;28;20236;-79
2023/12/08 01:52:52;;;;;;;21.83;11.90;;;0.10;1.00;;;;;;5067848;28;20205;-80
2023/12/08 01:55:19;;;;;;;21.27;12.20;;;0.10;99.90;;;;;;5068154;28;20203;-80
2023/12/08 01:57:46;;;;;;;20.20;11.53;;;0.10;1.00;;;;;;5069418;28;20199;-79
2023/12/08 02:00:15;;;;;;;21.33;12.27;;;0.20;1.00;;;;;;5072404;28;20514;-80
2023/12/08 02:02:43;;;;;;;21.90;11.90;;;0.10;99.90;;;;;;5064714;28;20207;-80
2023/12/08 02:05:10;;;;;;;20.37;10.37;;;0.10;99.90;;;;;;5072810;28;20199;-79
2023/12/08 02:07:37;;;;;;;21.03;11.23;;;0.10;1.00;;;;;;5073361;28;20222;-80
2023/12/08 02:10:06;;;;;;;21.90;11.30;;;0.20;1.00;;;;;;5072817;28;20218;-80
2023/12/08 02:12:33;;;;;;;21.27;12.23;;;0.20;1.00;;;;;;5073821;28;20198;-80
2023/12/08 02:15:00;;;;;;;20.37;10.60;;;0.20;1.00;;;;;;5071727;28;20212;-80
2023/12/08 02:17:31;;;;;;;21.07;11.70;;;0.20;1.00;;;;;;5072199;28;20234;-79
2023/12/08 02:19:58;;;;;;;21.77;12.23;;;0.10;1.00;;;;;;5071614;28;20226;-80
2023/12/08 02:22:25;;;;;;;21.33;12.97;;;0.10;1.00;;;;;;5070913;28;20285;-80
2023/12/08 02:24:53;;;;;;;22.83;11.90;;;0.10;21.10;;;;;;5074295;28;20202;-81
2023/12/08 02:27:20;;;;;;;20.43;12.03;;;0.10;1.00;;;;;;5070223;28;20693;-80
2023/12/08 02:29:47;;;;;;;20.87;12.27;;;0.10;99.90;;;;;;5071215;28;20223;-80
2023/12/08 02:32:20;;;;;;;22.07;11.47;;;0.10;75.70;;;;;;5066026;28;20203;-80
2023/12/08 02:34:48;;;;;;;20.47;11.43;;;0.10;95.70;;;;;;5073687;28;20265;-80
2023/12/08 02:37:17;;;;;;;21.50;11.37;;;0.10;1.00;;;;;;5071466;28;20205;-80
2023/12/08 02:39:48;;;;;;;21.03;12.50;;;0.10;1.00;;;;;;5067694;28;20262;-80
2023/12/08 02:42:17;;;;;;;22.40;12.17;;;0.10;96.80;;;;;;5064190;28;20203;-80
2023/12/08 02:44:43;;;;;;;20.43;12.27;;;0.00;92.00;;;;;;5063202;28;20206;-80
2023/12/08 02:47:10;;;;;;;21.53;12.57;;;0.00;99.90;;;;;;5069274;28;20218;-80
2023/12/08 02:49:37;;;;;;;21.27;11.47;;;0.00;99.90;;;;;;5064735;28;20230;-80
2023/12/08 02:52:04;;;;;;;19.93;10.87;;;0.00;99.90;;;;;;5068331;28;20612;-80
2023/12/08 02:54:30;;;;;;;20.93;11.23;;;0.00;99.90;;;;;;5066079;28;20199;-80
2023/12/08 02:56:57;;;;;;;21.53;10.80;;;0.00;99.90;;;;;;5066582;28;20199;-80
2023/12/08 02:59:25;;;;;;;21.00;10.53;;;0.10;99.90;;;;;;5065738;28;20223;-81
2023/12/08 03:01:52;;;;;;;21.13;11.50;;;0.00;99.90;;;;;;5067824;28;20205;-81
2023/12/08 03:04:19;;;;;;;21.43;13.20;;;0.00;99.90;;;;;;5065913;28;20199;-80
2023/12/08 03:06:45;;;;;;;20.63;12.23;;;0.00;99.90;;;;;;5067459;28;20221;-81
2023/12/08 03:09:12;;;;;;;20.53;12.13;;;0.00;99.90;;;;;;5069176;28;20226;-81
2023/12/08 03:11:39;;;;;;;20.60;11.90;;;0.00;99.90;;;;;;5073612;28;20200;-80
2023/12/08 03:14:06;;;;;;;20.50;11.13;;;0.00;99.90;;;;;;5072998;28;20205;-80
2023/12/08 03:16:34;;;;;;;21.80;12.00;;;0.00;99.90;;;;;;5069541;28;20206;-80
2023/12/08 03:19:01;;;;;;;22.70;11.03;;;0.10;99.90;;;;;;5073409;28;20202;-80
2023/12/08 03:21:28;;;;;;;21.87;11.67;;;0.10;99.90;;;;;;5071391;28;20698;-81
2023/12/08 03:23:55;;;;;;;21.93;12.00;;;0.10;99.90;;;;;;5065606;28;20576;-80
2023/12/08 03:26:22;;;;;;;21.90;11.17;;;0.10;99.90;;;;;;5069500;28;20223;-80
2023/12/08 03:28:48;;;;;;;21.97;11.47;;;0.10;99.90;;;;;;5069235;28;20572;-80
2023/12/08 03:31:26;;;;;;;21.50;11.97;;;0.10;99.90;;;;;;5076734;28;20198;-80
2023/12/08 03:33:54;;;;;;;20.27;11.57;;;0.10;99.90;;;;;;5072971;28;20704;-80
2023/12/08 03:36:21;;;;;;;21.50;12.40;;;0.10;40.00;;;;;;5071913;28;20201;-80
2023/12/08 03:38:48;;;;;;;20.23;11.50;;;0.10;76.40;;;;;;5073569;28;20647;-79
2023/12/08 03:41:15;;;;;;;21.47;11.70;;;0.10;99.90;;;;;;5071029;28;20204;-79
2023/12/08 03:43:42;;;;;;;21.40;12.70;;;0.20;1.00;;;;;;5067532;28;20201;-80
2023/12/08 03:46:09;;;;;;;19.90;11.57;;;0.20;1.00;;;;;;5064040;28;20206;-79
2023/12/08 03:48:37;;;;;;;22.30;12.67;;;0.10;1.00;;;;;;5068410;28;20207;-80
2023/12/08 03:51:05;;;;;;;22.83;11.47;;;0.20;1.00;;;;;;5061245;28;20230;-80
2023/12/08 03:53:32;;;;;;;23.37;13.07;;;0.30;1.00;;;;;;5065247;28;20202;-81
2023/12/08 03:55:59;;;;;;;23.40;12.87;;;0.20;99.90;;;;;;5071033;28;20194;-81
2023/12/08 03:58:27;;;;;;;24.87;13.57;;;0.20;99.90;;;;;;5065936;28;20209;-79
2023/12/08 04:00:53;;;;;;;24.17;14.10;;;0.30;1.00;;;;;;5063986;28;20697;-80
2023/12/08 04:03:21;;;;;;;25.00;14.13;;;0.30;99.90;;;;;;5064954;28;20571;-79
2023/12/08 04:05:47;;;;;;;23.77;13.83;;;0.40;99.90;;;;;;5069926;28;20265;-80
2023/12/08 04:08:15;;;;;;;24.23;14.63;;;0.40;99.90;;;;;;5068896;28;20218;-80
2023/12/08 04:10:42;;;;;;;25.27;14.20;;;0.30;1.00;;;;;;5065068;28;20702;-81
2023/12/08 04:13:10;;;;;;;24.23;12.50;;;0.30;1.00;;;;;;5072101;28;20578;-81
2023/12/08 04:15:37;;;;;;;23.37;11.93;;;0.30;1.00;;;;;;5070030;28;20206;-80
2023/12/08 04:18:04;;;;;;;23.40;13.33;;;0.20;1.00;;;;;;5071775;28;21554;-80
2023/12/08 04:20:32;;;;;;;24.13;13.63;;;0.40;1.00;;;;;;5068934;28;20707;-80
2023/12/08 04:22:58;;;;;;;23.67;11.57;;;0.40;1.00;;;;;;5067967;28;20208;-82
2023/12/08 04:25:26;;;;;;;21.90;13.03;;;0.40;1.00;;;;;;5071294;28;20203;-80
2023/12/08 04:27:53;;;;;;;23.13;13.27;;;0.40;1.00;;;;;;5071485;28;20225;-81
2023/12/08 04:30:20;;;;;;;24.47;12.47;;;0.40;1.00;;;;;;5067214;28;20225;-81
2023/12/08 04:32:47;;;;;;;26.13;13.63;;;0.50;1.00;;;;;;5067034;28;20563;-80
2023/12/08 04:35:14;;;;;;;24.83;13.97;;;0.50;1.00;;;;;;5067749;28;20208;-80
2023/12/08 04:37:40;;;;;;;22.20;13.23;;;0.60;1.00;;;;;;5068582;28;20202;-81
2023/12/08 04:40:08;;;;;;;20.57;12.60;;;0.50;1.00;;;;;;5071198;28;20281;-81
2023/12/08 04:42:37;;;;;;;24.53;14.23;;;0.50;1.00;;;;;;5070868;28;20195;-80
2023/12/08 04:45:04;;;;;;;22.77;11.70;;;0.50;1.00;;;;;;5073271;28;20657;-79
2023/12/08 04:47:31;;;;;;;21.10;11.57;;;0.50;1.00;;;;;;5076044;28;20753;-80
2023/12/08 04:49:58;;;;;;;21.97;12.80;;;0.50;1.00;;;;;;5076739;28;20240;-79
2023/12/08 04:52:25;;;;;;;21.13;12.00;;;0.60;1.00;;;;;;5076242;28;20213;-79
2023/12/08 04:54:52;;;;;;;22.90;13.63;;;0.60;1.00;;;;;;5071088;28;20203;-80
2023/12/08 04:57:19;;;;;;;21.53;11.57;;;0.60;1.00;;;;;;5066511;28;20198;-80
2023/12/08 04:59:47;;;;;;;21.73;11.57;;;0.60;1.00;;;;;;5064577;28;20229;-79
2023/12/08 05:02:14;;;;;;;22.97;11.33;;;0.60;1.00;;;;;;5065039;28;20212;-80
2023/12/08 05:04:42;;;;;;;21.90;11.30;;;0.60;1.00;;;;;;5068098;28;20209;-80
2023/12/08 05:07:08;;;;;;;24.00;12.73;;;0.60;1.00;;;;;;5070232;28;20583;-80
2023/12/08 05:09:35;;;;;;;22.03;11.50;;;0.60;1.00;;;;;;5068972;28;20225;-81
2023/12/08 05:12:02;;;;;;;20.50;12.13;;;0.60;99.90;;;;;;5065745;28;20266;-80
2023/12/08 05:14:29;;;;;;;22.10;10.83;;;0.60;1.00;;;;;;5067472;28;20257;-80
2023/12/08 05:16:57;;;;;;;21.27;11.27;;;0.60;1.00;;;;;;5065646;28;20226;-79
2023/12/08 05:19:24;;;;;;;24.17;14.17;;;0.70;1.00;;;;;;5064498;28;20227;-80
2023/12/08 05:21:50;;;;;;;23.50;13.30;;;0.70;1.00;;;;;;5067037;28;20210;-80
2023/12/08 05:24:17;;;;;;;21.50;10.97;;;0.70;1.00;;;;;;5065711;28;20203;-80
2023/12/08 05:26:44;;;;;;;21.17;10.93;;;0.70;1.00;;;;;;5072415;28;20219;-81
2023/12/08 05:29:11;;;;;;;25.00;12.23;;;0.60;1.00;;;;;;5071077;28;20228;-80
2023/12/08 05:31:38;;;;;;;22.63;11.67;;;0.60;1.00;;;;;;5070115;28;20277;-81
2023/12/08 05:34:06;;;;;;;21.40;11.57;;;0.70;1.00;;;;;;5072030;28;20226;-80
2023/12/08 05:36:32;;;;;;;21.57;10.90;;;0.60;1.00;;;;;;5070753;28;20199;-81
2023/12/08 05:38:59;;;;;;;19.87;10.70;;;0.60;1.00;;;;;;5071065;28;20198;-81
2023/12/08 05:41:26;;;;;;;20.33;10.67;;;0.60;1.00;;;;;;5069451;28;20198;-79
2023/12/08 05:43:53;;;;;;;21.00;11.17;;;0.60;1.00;;;;;;5071909;28;20199;-80
2023/12/08 05:46:20;;;;;;;21.20;10.63;;;0.60;1.00;;;;;;5069424;28;20218;-80
2023/12/08 05:48:47;;;;;;;22.23;11.27;;;0.60;1.00;;;;;;5070996;28;20250;-80
2023/12/08 05:51:16;;;;;;;21.20;11.20;;;0.60;1.00;;;;;;5065380;28;20855;-80
2023/12/08 05:53:43;;;;;;;21.33;11.30;;;0.60;1.00;;;;;;5069681;28;20199;-80
2023/12/08 05:56:10;;;;;;;22.23;10.97;;;0.60;1.00;;;;;;5070573;28;20199;-79
2023/12/08 05:58:37;;;;;;;21.40;11.10;;;0.60;1.00;;;;;;5074546;28;20671;-80
2023/12/08 06:01:04;;;;;;;22.80;11.37;;;0.60;1.00;;;;;;5066622;28;20219;-79
2023/12/08 06:03:31;;;;;;;22.77;11.20;;;0.60;1.00;;;;;;5078200;28;20252;-80
2023/12/08 06:05:58;;;;;;;21.90;10.43;;;0.70;1.00;;;;;;5069858;28;20210;-79
2023/12/08 06:08:26;;;;;;;22.53;11.00;;;0.70;1.00;;;;;;5070942;28;20226;-79
2023/12/08 06:10:52;;;;;;;19.83;11.30;;;0.80;1.00;;;;;;5067017;28;20598;-80
2023/12/08 06:13:19;;;;;;;19.90;11.20;;;0.80;1.00;;;;;;5070014;28;20208;-80
2023/12/08 06:15:46;;;;;;;20.10;10.87;;;0.80;1.00;;;;;;5072667;28;20209;-80
2023/12/08 06:18:13;;;;;;;21.40;10.07;;;0.80;1.00;;;;;;5066679;28;20195;-80
2023/12/08 06:20:39;;;;;;;21.47;11.50;;;0.70;99.90;;;;;;5068511;28;20223;-80
2023/12/08 06:23:06;;;;;;;21.57;11.77;;;0.60;99.90;;;;;;5065982;28;20230;-81
2023/12/08 06:25:34;;;;;;;21.73;11.57;;;0.60;99.90;;;;;;5071106;28;20575;-80
2023/12/08 06:28:01;;;;;;;23.50;11.67;;;0.60;99.90;;;;;;5074174;28;20229;-80
2023/12/08 06:30:28;;;;;;;20.20;10.43;;;0.60;85.60;;;;;;5069129;28;20768;-80
2023/12/08 06:32:54;;;;;;;21.77;10.93;;;0.70;1.00;;;;;;5070846;28;20289;-80
2023/12/08 06:35:21;;;;;;;22.90;12.57;;;0.60;1.00;;;;;;5065497;28;20843;-80
2023/12/08 06:37:48;;;;;;;22.30;13.67;;;0.70;1.00;;;;;;5074190;28;20205;-80
2023/12/08 06:40:15;;;;;;;20.80;12.10;;;0.70;1.00;;;;;;5073278;28;20237;-80
2023/12/08 06:42:43;;;;;;;20.30;11.80;;;0.60;1.00;;;;;;5073042;28;20265;-80
2023/12/08 06:45:11;;;;;;;22.47;11.33;;;0.70;1.00;;;;;;5070365;28;20198;-80
2023/12/08 06:47:37;;;;;;;20.20;12.23;;;0.70;99.90;;;;;;5070416;28;20560;-80
2023/12/08 06:50:05;;;;;;;20.33;9.90;;;0.70;99.90;;;;;;5067116;28;20692;-80
2023/12/08 06:52:32;;;;;;;21.40;12.30;;;0.60;99.90;;;;;;5070212;28;20234;-79
2023/12/08 06:54:59;;;;;;;23.90;12.37;;;0.60;99.90;;;;;;5067423;28;20198;-79
2023/12/08 06:57:26;;;;;;;18.90;9.73;;;0.70;99.90;;;;;;5072781;28;20198;-80
2023/12/08 06:59:54;;;;;;;22.33;10.83;;;0.70;99.90;;;;;;5074821;28;20704;-79
2023/12/08 07:02:21;;;;;;;20.37;12.47;;;0.80;1.00;;;;;;5071877;28;20202;-78
2023/12/08 07:04:48;;;;;;;20.60;10.87;;;0.80;1.00;;;;;;5070218;28;20297;-80
2023/12/08 07:07:16;;;;;;;20.67;10.57;;;0.80;1.00;;;;;;5065775;28;20233;-78
2023/12/08 07:09:43;;;;;;;20.27;9.57;;;0.80;1.00;;;;;;5072339;28;20222;-80
2023/12/08 07:12:09;;;;;;;20.20;10.93;;;0.80;1.00;;;;;;5069614;28;20667;-79
2023/12/08 07:14:36;;;;;;;22.23;12.70;;;0.80;1.00;;;;;;5068192;28;20205;-79
2023/12/08 07:17:05;;;;;;;18.90;9.87;;;0.90;1.00;;;;;;5074995;28;20204;-79
2023/12/08 07:19:31;;;;;;;20.50;10.33;;;0.90;1.00;;;;;;5075105;28;20236;-79
2023/12/08 07:21:58;;;;;;;17.83;10.60;;;0.90;1.00;;;;;;5070351;28;20209;-80
2023/12/08 07:24:25;;;;;;;16.67;8.77;;;0.90;1.00;;;;;;5057548;28;20214;-79
2023/12/08 07:26:54;;;;;;;17.27;8.90;;;1.00;1.00;;;;;;5059209;28;20664;-80
2023/12/08 07:29:22;;;;;;;18.50;10.50;;;0.90;1.00;;;;;;5067986;28;20226;-80
2023/12/08 07:31:49;;;;;;;19.07;10.00;;;0.90;1.00;;;;;;5068671;28;20202;-79
2023/12/08 07:34:17;;;;;;;17.33;9.60;;;0.90;1.00;;;;;;5067354;28;20205;-79
2023/12/08 07:36:44;;;;;;;17.87;8.97;;;0.90;99.90;;;;;;5062319;28;20198;-80
2023/12/08 07:39:10;;;;;;;17.53;9.27;;;0.90;1.00;;;;;;5064051;28;20224;-78
2023/12/08 07:41:37;;;;;;;17.20;9.37;;;0.90;99.90;;;;;;5066854;28;20199;-81
2023/12/08 07:44:04;;;;;;;18.90;9.93;;;0.90;36.00;;;;;;5066724;28;20293;-79
2023/12/08 07:46:31;;;;;;;19.97;8.90;;;0.90;1.00;;;;;;5064602;28;20214;-80
2023/12/08 07:48:59;;;;;;;20.33;9.77;;;0.90;1.00;;;;;;5064400;28;20224;-79
2023/12/08 07:51:27;;;;;;;18.67;8.80;;;0.90;1.00;;;;;;5067248;28;20202;-80
2023/12/08 07:53:54;;;;;;;19.77;10.43;;;1.00;1.00;;;;;;5067791;28;20214;-79
2023/12/08 07:56:23;;;;;;;18.23;9.30;;;1.00;1.00;;;;;;5063814;28;20645;-80
2023/12/08 07:58:49;;;;;;;19.67;10.23;;;1.00;99.90;;;;;;5068618;28;20669;-79
2023/12/08 08:01:16;;;;;;;19.33;9.63;;;1.00;1.00;;;;;;5069492;28;20629;-80
2023/12/08 08:03:44;;;;;;;16.80;8.63;;;0.90;1.00;;;;;;5061253;28;20253;-79
2023/12/08 08:06:10;;;;;;;19.00;9.87;;;0.90;6.80;;;;;;5067393;28;20484;-78
2023/12/08 08:08:38;;;;;;;19.07;11.47;;;0.90;1.00;;;;;;5068437;28;20233;-79
2023/12/08 08:11:06;;;;;;;18.23;10.40;;;0.90;99.90;;;;;;5064113;28;21040;-79
2023/12/08 08:13:32;;;;;;;17.53;9.47;;;0.90;99.90;;;;;;5069249;28;20198;-79
2023/12/08 08:15:59;;;;;;;18.23;9.40;;;0.90;1.00;;;;;;5069864;28;20202;-80
2023/12/08 08:18:28;;;;;;;18.00;9.90;;;0.90;5.40;;;;;;5066737;28;20210;-79
2023/12/08 08:20:55;;;;;;;20.87;10.40;;;1.00;50.30;;;;;;5055472;28;20310;-80
2023/12/08 08:23:22;;;;;;;17.90;9.53;;;0.90;97.40;;;;;;5063949;28;20655;-79
2023/12/08 08:25:51;;;;;;;18.10;9.33;;;1.00;99.90;;;;;;5065471;28;20199;-79
2023/12/08 08:28:19;;;;;;;17.60;9.47;;;1.10;99.90;;;;;;5053630;28;20632;-79
2023/12/08 08:30:46;;;;;;;17.60;9.30;;;1.10;99.90;;;;;;5070246;28;20696;-79
2023/12/08 08:33:13;;;;;;;18.67;10.07;;;1.10;1.00;;;;;;5057704;28;20702;-79
2023/12/08 08:35:40;;;;;;;20.23;10.53;;;1.10;1.00;;;;;;5060034;28;20226;-79
2023/12/08 08:38:07;;;;;;;17.17;9.17;;;1.10;1.00;;;;;;5054850;28;20584;-78
2023/12/08 08:40:34;;;;;;;17.73;9.13;;;1.00;1.00;;;;;;5060179;28;20222;-78
2023/12/08 08:43:02;;;;;;;16.80;8.87;;;0.90;1.00;;;;;;5063970;28;20202;-80
2023/12/08 08:45:29;;;;;;;17.47;8.67;;;0.90;1.00;;;;;;5068271;28;20210;-79
2023/12/08 08:47:56;;;;;;;17.67;10.07;;;0.90;1.00;;;;;;5068139;28;20229;-79
2023/12/08 08:50:27;;;;;;;19.87;10.53;;;1.00;54.30;;;;;;5062454;28;20249;-80
2023/12/08 08:52:53;;;;;;;19.40;9.20;;;1.00;1.00;;;;;;5061834;28;20709;-81
2023/12/08 08:55:20;;;;;;;19.23;9.63;;;1.10;1.00;;;;;;5066738;28;20696;-78
2023/12/08 08:57:47;;;;;;;19.60;9.30;;;1.20;1.00;;;;;;5077927;28;20541;-80
2023/12/08 09:00:18;;;;;;;19.53;8.73;;;1.10;99.90;;;;;;5077939;28;20222;-79
2023/12/08 09:02:49;;;;;;;17.87;9.57;;;1.00;1.00;;;;;;5075699;28;20792;-79
2023/12/08 09:05:16;;;;;;;18.27;9.47;;;1.00;1.00;;;;;;5076008;28;20186;-79
2023/12/08 09:07:43;;;;;;;21.07;10.33;;;1.00;99.90;;;;;;5068139;28;20199;-78
2023/12/08 09:10:10;;;;;;;18.90;10.47;;;1.00;99.90;;;;;;5057658;28;20353;-79
2023/12/08 09:12:37;;;;;;;20.07;11.50;;;1.10;1.00;;;;;;5057830;28;20207;-79
2023/12/08 09:15:04;;;;;;;17.87;9.23;;;1.10;99.90;;;;;;5058349;28;20207;-79
2023/12/08 09:17:32;;;;;;;16.90;9.70;;;1.10;99.90;;;;;;5057183;28;20202;-79
2023/12/08 09:19:59;;;;;;;18.67;9.30;;;1.00;1.00;;;;;;5059089;28;20314;-79
2023/12/08 09:22:26;;;;;;;18.40;9.03;;;1.00;1.00;;;;;;5077693;28;20209;-80
2023/12/08 09:24:52;;;;;;;19.60;9.60;;;1.00;1.00;;;;;;5078195;28;20202;-79
2023/12/08 09:27:19;;;;;;;18.63;9.63;;;1.00;1.00;;;;;;5077755;28;20508;-79
2023/12/08 09:29:46;;;;;;;21.50;10.10;;;1.00;99.90;;;;;;5077300;28;20236;-80
2023/12/08 09:32:13;;;;;;;18.93;9.13;;;1.00;1.00;;;;;;5057646;28;20658;-80
2023/12/08 09:34:41;;;;;;;19.93;9.37;;;1.00;1.00;;;;;;5057653;28;20202;-79
2023/12/08 09:37:08;;;;;;;18.80;9.07;;;1.00;91.80;;;;;;5068279;28;20198;-79
2023/12/08 09:39:36;;;;;;;17.67;9.03;;;1.00;99.90;;;;;;5074373;28;20211;-79
2023/12/08 09:42:07;;;;;;;18.60;9.13;;;1.00;1.00;;;;;;5067878;28;20723;-79
2023/12/08 09:44:35;;;;;;;15.20;7.87;;;0.90;1.00;;;;;;5076906;28;20204;-79
2023/12/08 09:47:04;;;;;;;19.17;9.40;;;0.90;99.90;;;;;;5076994;28;20205;-80
2023/12/08 09:49:37;;;;;;;17.57;9.23;;;0.90;1.00;;;;;;5077059;28;20671;-79
2023/12/08 09:52:05;;;;;;;17.10;9.40;;;0.90;1.00;;;;;;5073445;28;20206;-80
2023/12/08 09:54:33;;;;;;;17.53;9.40;;;1.00;1.00;;;;;;5071282;28;20202;-79
2023/12/08 09:57:01;;;;;;;17.97;8.60;;;1.10;1.00;;;;;;5069359;28;20285;-80
2023/12/08 09:59:29;;;;;;;18.47;8.60;;;1.00;37.70;;;;;;5075948;28;20737;-80
2023/12/08 10:01:56;;;;;;;19.50;8.80;;;0.90;99.90;;;;;;5064357;28;20211;-78
2023/12/08 10:04:23;;;;;;;21.37;9.53;;;0.90;99.90;;;;;;5073757;28;20293;-79
2023/12/08 10:06:51;;;;;;;19.13;9.97;;;0.90;99.90;;;;;;5073075;28;20216;-79
2023/12/08 10:09:21;;;;;;;20.80;11.50;;;0.90;99.90;;;;;;5070369;28;20226;-80
2023/12/08 10:11:47;;;;;;;21.07;12.03;;;0.90;99.90;;;;;;5055240;28;20233;-80
2023/12/08 10:14:16;;;;;;;18.77;9.90;;;1.00;99.90;;;;;;5067058;28;20202;-79
2023/12/08 10:16:44;;;;;;;22.60;10.33;;;0.90;99.90;;;;;;5075817;28;20205;-79
2023/12/08 10:19:11;;;;;;;18.07;9.37;;;0.90;99.90;;;;;;5075866;28;20752;-79
2023/12/08 10:21:38;;;;;;;20.47;11.10;;;0.90;99.90;;;;;;5076386;28;20209;-79
2023/12/08 10:24:07;;;;;;;18.17;9.23;;;0.90;99.90;;;;;;5071259;28;20198;-79
2023/12/08 10:26:36;;;;;;;17.47;9.43;;;0.90;99.90;;;;;;5075864;28;20284;-79
2023/12/08 10:29:03;;;;;;;21.50;12.10;;;0.90;99.90;;;;;;5061751;28;20223;-79
2023/12/08 10:31:30;;;;;;;22.93;14.60;;;1.00;99.90;;;;;;5070933;28;20194;-78
2023/12/08 10:33:57;;;;;;;17.33;10.87;;;1.00;99.90;;;;;;5070042;28;20202;-79
2023/12/08 10:36:24;;;;;;;16.70;8.97;;;1.00;99.90;;;;;;5070482;28;20198;-79
2023/12/08 10:38:52;;;;;;;19.30;8.93;;;1.00;99.90;;;;;;5070443;28;20194;-79
2023/12/08 10:41:19;;;;;;;17.17;8.90;;;1.00;99.90;;;;;;5071167;28;20203;-79
2023/12/08 10:43:47;;;;;;;15.07;7.93;;;1.10;99.90;;;;;;5072270;28;20661;-79
2023/12/08 10:46:14;;;;;;;20.23;8.83;;;1.10;99.90;;;;;;5068293;28;20214;-80
2023/12/08 10:48:42;;;;;;;17.70;8.33;;;1.10;99.90;;;;;;5065489;28;20774;-80
2023/12/08 10:51:13;;;;;;;17.17;8.20;;;1.20;99.90;;;;;;5055948;28;20323;-80
2023/12/08 10:53:41;;;;;;;17.47;9.83;;;1.20;99.90;;;;;;5063211;28;20763;-80
2023/12/08 10:56:11;;;;;;;17.67;8.70;;;1.20;99.90;;;;;;5056224;28;20685;-79
2023/12/08 10:58:42;;;;;;;17.07;8.97;;;1.20;99.90;;;;;;5061623;28;20596;-81
2023/12/08 11:01:14;;;;;;;17.93;8.60;;;1.20;99.90;;;;;;5060720;28;20226;-81
2023/12/08 11:03:42;;;;;;;18.40;9.17;;;1.20;99.90;;;;;;5064092;28;20657;-79
2023/12/08 11:06:11;;;;;;;16.23;9.13;;;1.20;99.90;;;;;;5066616;28;20210;-80
2023/12/08 11:08:41;;;;;;;21.00;9.23;;;1.30;99.90;;;;;;5063759;28;20290;-79
2023/12/08 11:11:10;;;;;;;17.40;8.40;;;1.40;99.90;;;;;;5062807;28;20258;-80
2023/12/08 11:13:38;;;;;;;16.27;8.73;;;1.40;99.90;;;;;;5063789;28;20571;-80
2023/12/08 11:16:19;;;;;;;16.50;8.60;;;1.40;99.90;;;;;;5066999;28;20211;-80
2023/12/08 11:18:47;;;;;;;14.97;9.10;;;1.30;99.90;;;;;;5066576;28;20205;-81
2023/12/08 11:21:14;;;;;;;15.70;8.87;;;1.40;99.90;;;;;;5066432;28;20199;-80
2023/12/08 11:23:42;;;;;;;16.40;8.10;;;1.40;99.90;;;;;;5069337;28;20284;-79
2023/12/08 11:26:18;;;;;;;15.17;9.00;;;1.30;99.90;;;;;;5064855;28;20529;-79
2023/12/08 11:28:57;;;;;;;16.40;8.33;;;1.40;99.90;;;;;;5067390;28;20228;-79
2023/12/08 11:31:32;;;;;;;16.37;8.03;;;1.30;99.90;;;;;;5068894;28;20209;-80
2023/12/08 11:34:03;;;;;;;16.10;8.43;;;1.40;99.90;;;;;;5066868;28;20227;-80
2023/12/08 11:36:33;;;;;;;16.70;9.43;;;1.40;99.90;;;;;;5065291;28;20198;-79
2023/12/08 11:39:00;;;;;;;19.70;11.37;;;1.40;99.90;;;;;;5068722;28;20190;-80
2023/12/08 11:41:27;;;;;;;17.83;9.97;;;1.50;99.90;;;;;;5073851;28;20199;-79
2023/12/08 11:43:53;;;;;;;16.03;8.83;;;1.50;99.90;;;;;;5073382;28;20202;-79
2023/12/08 11:46:21;;;;;;;16.50;8.70;;;1.60;64.60;;;;;;5062008;28;20207;-79
2023/12/08 11:48:53;;;;;;;16.13;8.70;;;1.70;2.60;;;;;;5067986;28;20275;-80
2023/12/08 11:51:20;;;;;;;17.00;9.30;;;1.80;1.00;;;;;;5070627;28;20739;-79
2023/12/08 11:53:55;;;;;;;17.97;9.23;;;1.90;1.00;;;;;;5068460;28;20200;-79
2023/12/08 11:56:38;;;;;;;16.87;8.53;;;1.90;1.00;;;;;;5067306;28;20244;-79
2023/12/08 11:59:06;;;;;;;16.20;8.30;;;1.90;1.00;;;;;;5075044;28;20218;-81
2023/12/08 12:01:32;;;;;;;17.07;10.23;;;1.90;99.90;;;;;;5062996;28;20199;-79
2023/12/08 12:04:01;;;;;;;17.97;10.03;;;2.00;99.90;;;;;;5071744;28;20225;-80
2023/12/08 12:06:30;;;;;;;16.93;10.13;;;1.90;99.90;;;;;;5075254;28;20205;-80
2023/12/08 12:08:58;;;;;;;17.60;9.37;;;1.90;99.90;;;;;;5065576;28;20313;-80
2023/12/08 12:11:30;;;;;;;17.50;9.80;;;1.90;1.00;;;;;;5056308;28;20209;-80
2023/12/08 12:14:00;;;;;;;16.43;8.93;;;1.90;1.00;;;;;;5057186;28;20187;-81
2023/12/08 12:16:28;;;;;;;14.83;8.53;;;1.80;1.00;;;;;;5059724;28;20191;-81
2023/12/08 12:18:55;;;;;;;16.37;8.63;;;1.90;99.90;;;;;;5076413;28;20198;-80
2023/12/08 12:21:23;;;;;;;17.37;10.00;;;1.90;99.90;;;;;;5076783;28;20204;-80
2023/12/08 12:23:49;;;;;;;16.53;8.30;;;1.90;93.20;;;;;;5076864;28;20194;-81
2023/12/08 12:26:20;;;;;;;16.40;8.67;;;1.80;1.00;;;;;;5077336;28;20212;-81
2023/12/08 12:28:47;;;;;;;15.23;8.20;;;1.90;1.00;;;;;;5075287;28;20193;-79
2023/12/08 12:31:15;;;;;;;16.43;8.97;;;1.90;1.00;;;;;;5075312;28;20202;-80
2023/12/08 12:33:44;;;;;;;20.70;9.17;;;1.90;1.00;;;;;;5078979;28;20206;-80
2023/12/08 12:36:12;;;;;;;16.20;8.53;;;1.90;1.00;;;;;;5079500;28;20240;-80
2023/12/08 12:38:42;;;;;;;15.03;9.43;;;1.90;1.00;;;;;;5075121;28;20206;-79
2023/12/08 12:41:23;;;;;;;16.77;9.50;;;2.00;1.00;;;;;;5068813;28;20619;-79
2023/12/08 12:43:56;;;;;;;17.03;9.00;;;2.00;1.00;;;;;;5070216;28;20201;-79
2023/12/08 12:46:25;;;;;;;18.17;9.87;;;2.00;1.00;;;;;;5074260;28;20206;-79
2023/12/08 12:48:52;;;;;;;18.30;9.20;;;2.10;99.90;;;;;;5078367;28;20206;-79